createdAt,value
2018-04-24T00:01:48.355Z,13.10
2018-04-24T00:04:15.900Z,13.00
2018-04-24T00:06:43.986Z,13.00
2018-04-24T00:09:11.538Z,13.00
2018-04-24T00:11:39.104Z,13.00
2018-04-24T00:14:06.665Z,13.00
2018-04-24T00:16:34.872Z,13.00
2018-04-24T00:19:02.465Z,13.00
2018-04-24T00:21:30.003Z,12.90
2018-04-24T00:23:57.613Z,12.90
2018-04-24T00:26:25.171Z,12.90
2018-04-24T00:28:52.965Z,12.80
2018-04-24T00:31:20.939Z,12.80
2018-04-24T00:33:49.019Z,12.80
2018-04-24T00:36:17.473Z,12.80
2018-04-24T00:38:45.020Z,12.80
2018-04-24T00:41:12.613Z,12.70
2018-04-24T00:43:41.531Z,12.70
2018-04-24T00:46:09.120Z,12.70
2018-04-24T00:48:36.665Z,12.80
2018-04-24T00:51:04.239Z,12.80
2018-04-24T00:53:39.623Z,12.80
2018-04-24T00:56:08.400Z,12.90
2018-04-24T00:58:36.374Z,13.00
2018-04-24T01:01:03.940Z,13.00
2018-04-24T01:03:31.532Z,13.10
2018-04-24T01:05:59.110Z,13.10
2018-04-24T01:08:26.701Z,13.20
2018-04-24T01:10:54.269Z,13.20
2018-04-24T01:13:21.830Z,13.30
2018-04-24T01:15:49.904Z,13.50
2018-04-24T01:18:17.928Z,13.50
2018-04-24T01:20:45.471Z,13.50
2018-04-24T01:23:13.829Z,13.60
2018-04-24T01:25:41.392Z,13.60
2018-04-24T01:28:08.986Z,13.70
2018-04-24T01:30:36.558Z,13.80
2018-04-24T01:33:04.111Z,13.80
2018-04-24T01:35:31.669Z,13.80
2018-04-24T01:37:59.269Z,13.70
2018-04-24T01:40:27.262Z,13.50
2018-04-24T01:42:55.705Z,13.50
2018-04-24T01:45:23.289Z,13.40
2018-04-24T01:47:50.849Z,13.30
2018-04-24T01:50:18.781Z,13.30
2018-04-24T01:52:46.344Z,13.30
2018-04-24T01:55:13.991Z,13.30
2018-04-24T01:57:42.158Z,13.30
2018-04-24T02:00:09.790Z,13.30
2018-04-24T02:02:38.667Z,13.30
2018-04-24T02:05:06.628Z,13.10
2018-04-24T02:07:34.602Z,13.00
2018-04-24T02:10:03.511Z,12.90
2018-04-24T02:12:31.071Z,12.90
2018-04-24T02:14:58.641Z,12.80
2018-04-24T02:17:26.232Z,12.70
2018-04-24T02:19:53.835Z,12.60
2018-04-24T02:22:21.799Z,12.40
2018-04-24T02:24:49.748Z,12.30
2018-04-24T02:27:17.297Z,12.30
2018-04-24T02:29:44.957Z,12.20
2018-04-24T02:32:12.534Z,12.10
2018-04-24T02:34:40.532Z,12.00
2018-04-24T02:37:08.090Z,12.00
2018-04-24T02:39:36.103Z,11.90
2018-04-24T02:42:04.280Z,11.90
2018-04-24T02:44:31.859Z,11.90
2018-04-24T02:46:59.428Z,11.80
2018-04-24T02:49:26.988Z,11.80
2018-04-24T02:51:55.004Z,11.70
2018-04-24T02:54:22.540Z,11.70
2018-04-24T02:56:50.094Z,11.70
2018-04-24T02:59:17.725Z,11.70
2018-04-24T03:01:45.316Z,11.70
2018-04-24T03:04:13.262Z,11.80
2018-04-24T03:06:40.833Z,11.80
2018-04-24T03:09:08.776Z,11.80
2018-04-24T03:11:37.533Z,11.80
2018-04-24T03:14:05.045Z,11.80
2018-04-24T03:16:32.997Z,11.90
2018-04-24T03:19:00.548Z,11.90
2018-04-24T03:21:28.097Z,11.90
2018-04-24T03:23:55.674Z,11.80
2018-04-24T03:26:23.220Z,11.80
2018-04-24T03:28:50.860Z,11.80
2018-04-24T03:31:18.409Z,11.70
2018-04-24T03:33:46.078Z,11.70
2018-04-24T03:36:13.735Z,11.70
2018-04-24T03:38:41.712Z,11.70
2018-04-24T03:41:09.304Z,11.70
2018-04-24T03:43:36.912Z,11.80
2018-04-24T03:46:04.499Z,11.80
2018-04-24T03:48:32.052Z,11.80
2018-04-24T03:50:59.651Z,11.80
2018-04-24T03:53:27.202Z,11.70
2018-04-24T03:55:54.785Z,11.60
2018-04-24T03:58:22.334Z,11.50
2018-04-24T04:00:49.883Z,11.50
2018-04-24T04:03:18.117Z,11.40
2018-04-24T04:05:45.661Z,11.40
2018-04-24T04:08:13.272Z,11.30
2018-04-24T04:10:40.840Z,11.30
2018-04-24T04:13:08.402Z,11.20
2018-04-24T04:15:35.999Z,11.10
2018-04-24T04:18:15.285Z,11.10
2018-04-24T04:20:54.562Z,11.10
2018-04-24T04:23:33.861Z,11.00
2018-04-24T04:26:01.420Z,11.00
2018-04-24T04:28:28.991Z,11.00
2018-04-24T04:30:57.909Z,11.00
2018-04-24T04:33:26.378Z,11.00
2018-04-24T04:35:55.706Z,11.00
2018-04-24T04:38:23.299Z,11.00
2018-04-24T04:40:52.122Z,11.00
2018-04-24T04:43:19.702Z,11.00
2018-04-24T04:45:47.326Z,11.00
2018-04-24T04:48:14.947Z,11.00
2018-04-24T04:50:43.795Z,11.00
2018-04-24T04:53:11.894Z,11.10
2018-04-24T04:55:39.523Z,11.10
2018-04-24T04:58:07.084Z,11.10
2018-04-24T05:00:34.667Z,11.20
2018-04-24T05:03:02.364Z,11.30
2018-04-24T05:05:29.923Z,11.30
2018-04-24T05:07:57.504Z,11.40
2018-04-24T05:10:25.988Z,11.50
2018-04-24T05:12:53.540Z,11.60
2018-04-24T05:15:21.476Z,11.60
2018-04-24T05:17:49.065Z,11.70
2018-04-24T05:20:16.664Z,11.80
2018-04-24T05:22:44.359Z,11.90
2018-04-24T05:25:11.967Z,12.00
2018-04-24T05:27:40.727Z,12.00
2018-04-24T05:30:08.288Z,12.10
2018-04-24T05:32:35.887Z,12.20
2018-04-24T05:35:03.971Z,12.30
2018-04-24T05:37:33.807Z,12.40
2018-04-24T05:40:01.404Z,12.40
2018-04-24T05:42:28.979Z,12.50
2018-04-24T05:44:56.572Z,12.60
2018-04-24T05:47:24.520Z,12.70
2018-04-24T05:49:52.064Z,12.70
2018-04-24T05:52:19.730Z,12.70
2018-04-24T05:54:47.793Z,12.80
2018-04-24T05:57:15.395Z,12.80
2018-04-24T05:59:43.427Z,13.00
2018-04-24T06:02:11.034Z,13.00
2018-04-24T06:04:38.592Z,13.10
2018-04-24T06:07:06.245Z,13.30
2018-04-24T06:09:34.235Z,13.60
2018-04-24T06:12:01.946Z,13.60
2018-04-24T06:14:29.551Z,13.70
2018-04-24T06:16:58.025Z,13.70
2018-04-24T06:19:26.003Z,13.90
2018-04-24T06:24:28.277Z,14.00
2018-04-24T06:26:56.252Z,14.20
2018-04-24T06:29:26.191Z,14.30
2018-04-24T06:31:53.895Z,14.30
2018-04-24T06:34:21.888Z,14.30
2018-04-24T06:36:49.890Z,14.30
2018-04-24T06:39:17.517Z,14.30
2018-04-24T06:41:47.992Z,14.30
2018-04-24T06:44:15.790Z,14.30
2018-04-24T06:46:43.323Z,14.30
2018-04-24T06:49:10.888Z,14.30
2018-04-24T06:51:38.729Z,14.30
2018-04-24T06:54:06.292Z,14.40
2018-04-24T06:56:33.884Z,14.50
2018-04-24T06:59:01.482Z,14.60
2018-04-24T07:01:29.521Z,14.80
2018-04-24T07:03:57.153Z,14.80
2018-04-24T07:06:24.831Z,14.90
2018-04-24T07:08:52.465Z,15.00
2018-04-24T07:11:20.849Z,15.00
2018-04-24T07:13:48.471Z,15.00
2018-04-24T07:16:16.448Z,15.30
2018-04-24T07:18:44.417Z,15.30
2018-04-24T07:21:12.379Z,15.50
2018-04-24T07:23:40.060Z,15.50
2018-04-24T07:26:08.049Z,15.80
2018-04-24T07:28:35.627Z,15.80
2018-04-24T07:31:04.036Z,15.90
2018-04-24T07:33:31.574Z,16.00
2018-04-24T07:35:59.170Z,16.00
2018-04-24T07:38:26.947Z,15.90
2018-04-24T07:40:54.550Z,15.90
2018-04-24T07:43:22.985Z,16.00
2018-04-24T07:45:51.725Z,16.20
2018-04-24T07:48:19.288Z,16.20
2018-04-24T07:50:46.887Z,16.50
2018-04-24T07:53:14.857Z,16.80
2018-04-24T07:55:42.847Z,16.90
2018-04-24T07:58:10.417Z,16.90
2018-04-24T08:00:38.018Z,17.10
2018-04-24T08:03:05.631Z,17.20
2018-04-24T08:05:33.304Z,17.30
2018-04-24T08:08:00.895Z,17.30
2018-04-24T08:10:29.985Z,17.40
2018-04-24T08:12:58.449Z,17.60
2018-04-24T08:15:26.010Z,17.70
2018-04-24T08:17:53.536Z,17.70
2018-04-24T08:20:21.117Z,17.70
2018-04-24T08:22:49.288Z,17.70
2018-04-24T08:25:16.883Z,17.80
2018-04-24T08:27:44.500Z,18.00
2018-04-24T08:30:12.529Z,18.20
2018-04-24T08:32:40.080Z,18.20
2018-04-24T08:35:07.673Z,18.20
2018-04-24T08:37:35.686Z,18.30
2018-04-24T08:40:03.859Z,18.30
2018-04-24T08:42:31.695Z,18.20
2018-04-24T08:44:59.288Z,18.10
2018-04-24T08:47:26.939Z,18.10
2018-04-24T08:49:54.517Z,18.20
2018-04-24T08:52:22.137Z,18.30
2018-04-24T08:54:49.866Z,18.60
2018-04-24T08:57:17.444Z,18.60
2018-04-24T08:59:46.119Z,18.50
2018-04-24T09:02:17.624Z,18.50
2018-04-24T09:04:45.324Z,18.50
2018-04-24T09:07:13.940Z,18.50
2018-04-24T09:09:41.900Z,18.50
2018-04-24T09:12:09.715Z,18.40
2018-04-24T09:14:37.309Z,18.50
2018-04-24T09:17:04.860Z,18.50
2018-04-24T09:19:33.318Z,18.50
2018-04-24T09:22:00.871Z,18.70
2018-04-24T09:24:28.516Z,18.80
2018-04-24T09:26:59.395Z,18.80
2018-04-24T09:29:30.337Z,18.80
2018-04-24T09:32:02.077Z,18.80
2018-04-24T09:34:29.693Z,18.90
2018-04-24T09:36:58.321Z,18.80
2018-04-24T09:39:28.119Z,18.90
2018-04-24T09:41:56.159Z,18.90
2018-04-24T09:44:25.675Z,19.00
2018-04-24T09:46:53.667Z,19.00
2018-04-24T09:49:21.262Z,19.00
2018-04-24T09:51:48.818Z,19.00
2018-04-24T09:54:16.475Z,19.20
2018-04-24T09:56:44.145Z,19.30
2018-04-24T10:01:56.182Z,19.50
2018-04-24T10:04:28.925Z,19.80
2018-04-24T10:06:56.480Z,20.00
2018-04-24T10:09:24.034Z,19.90
2018-04-24T10:11:51.609Z,19.90
2018-04-24T10:14:19.156Z,19.90
2018-04-24T10:16:46.715Z,19.80
2018-04-24T10:19:14.300Z,19.80
2018-04-24T10:21:41.949Z,20.00
2018-04-24T10:24:09.451Z,20.40
2018-04-24T10:26:37.020Z,20.40
2018-04-24T10:29:04.584Z,20.40
2018-04-24T10:31:32.138Z,20.50
2018-04-24T10:33:59.838Z,20.50
2018-04-24T10:36:27.826Z,20.60
2018-04-24T10:38:55.375Z,20.40
2018-04-24T10:41:22.954Z,20.20
2018-04-24T10:43:50.515Z,20.60
2018-04-24T10:46:18.104Z,20.80
2018-04-24T10:48:45.743Z,20.90
2018-04-24T10:51:13.728Z,21.00
2018-04-24T10:53:41.331Z,21.00
2018-04-24T10:56:08.912Z,21.20
2018-04-24T10:58:36.456Z,21.40
2018-04-24T11:01:04.730Z,21.50
2018-04-24T11:03:32.395Z,21.60
2018-04-24T11:05:59.937Z,21.70
2018-04-24T11:08:27.542Z,21.60
2018-04-24T11:16:40.761Z,22.60
2018-04-24T11:19:08.372Z,22.60
2018-04-24T11:24:39.748Z,22.00
2018-04-24T11:35:42.765Z,22.50
2018-04-24T11:41:34.851Z,23.00
2018-04-24T11:44:03.777Z,23.40
2018-04-24T11:46:32.329Z,24.00
2018-04-24T11:49:05.806Z,23.90
2018-04-24T11:51:33.866Z,25.00
2018-04-24T11:54:01.740Z,26.30
2018-04-24T11:56:29.332Z,26.70
2018-04-24T11:58:57.266Z,29.00
2018-04-24T12:01:25.607Z,29.00
2018-04-24T12:03:53.247Z,29.40
2018-04-24T12:06:21.258Z,31.00
2018-04-24T12:08:48.829Z,31.00
2018-04-24T12:11:16.362Z,31.30
2018-04-24T12:13:45.754Z,30.90
2018-04-24T12:16:13.296Z,31.00
2018-04-24T12:18:41.218Z,31.20
2018-04-24T12:21:08.787Z,31.20
2018-04-24T12:23:36.342Z,31.60
2018-04-24T12:26:03.908Z,31.70
2018-04-24T12:28:31.463Z,31.90
2018-04-24T12:31:02.467Z,32.20
2018-04-24T12:33:33.840Z,32.40
2018-04-24T12:36:02.192Z,33.00
2018-04-24T12:41:05.635Z,33.90
2018-04-24T12:43:33.651Z,34.80
2018-04-24T12:46:01.920Z,34.80
2018-04-24T12:48:29.470Z,35.00
2018-04-24T12:50:57.562Z,34.90
2018-04-24T12:53:25.527Z,34.90
2018-04-24T12:55:53.454Z,35.00
2018-04-24T12:58:21.061Z,35.00
2018-04-24T13:00:48.621Z,35.80
2018-04-24T13:03:16.254Z,36.40
2018-04-24T13:05:43.805Z,36.40
2018-04-24T13:08:11.372Z,36.60
2018-04-24T13:10:39.873Z,37.10
2018-04-24T13:13:07.804Z,35.30
2018-04-24T13:15:35.392Z,35.30
2018-04-24T13:18:02.951Z,34.00
2018-04-24T13:20:30.554Z,32.80
2018-04-24T13:22:58.158Z,32.10
2018-04-24T13:25:25.834Z,31.90
2018-04-24T13:27:53.383Z,31.30
2018-04-24T13:30:20.951Z,30.60
2018-04-24T13:32:48.614Z,29.50
2018-04-24T13:35:16.368Z,28.90
2018-04-24T13:37:43.961Z,28.50
2018-04-24T13:40:12.061Z,30.00
2018-04-24T13:42:40.555Z,30.00
2018-04-24T13:47:45.488Z,29.60
2018-04-24T13:50:13.573Z,29.30
2018-04-24T13:52:41.207Z,28.30
2018-04-24T13:55:08.925Z,27.60
2018-04-24T13:57:39.772Z,27.20
2018-04-24T14:00:11.152Z,27.00
2018-04-24T14:02:47.950Z,27.10
2018-04-24T14:05:17.685Z,27.30
2018-04-24T14:08:01.960Z,27.70
2018-04-24T14:10:35.409Z,28.30
2018-04-24T14:16:28.620Z,28.40
2018-04-24T14:19:28.908Z,28.40
2018-04-24T14:21:56.456Z,29.00
2018-04-24T14:24:24.038Z,28.90
2018-04-24T14:26:51.741Z,28.20
2018-04-24T14:29:19.616Z,27.70
2018-04-24T14:31:47.175Z,27.10
2018-04-24T14:34:15.099Z,26.30
2018-04-24T14:36:43.453Z,26.30
2018-04-24T14:39:11.138Z,26.00
2018-04-24T14:41:38.687Z,25.80
2018-04-24T14:44:07.354Z,25.90
2018-04-24T14:46:35.326Z,26.00
2018-04-24T14:49:03.684Z,26.00
2018-04-24T14:51:31.329Z,26.20
2018-04-24T14:53:58.868Z,26.60
2018-04-24T14:56:26.408Z,26.90
2018-04-24T14:58:53.976Z,27.10
2018-04-24T15:01:21.571Z,27.20
2018-04-24T15:03:49.197Z,27.10
2018-04-24T15:06:16.802Z,26.70
2018-04-24T15:08:44.333Z,26.60
2018-04-24T15:11:11.912Z,26.60
2018-04-24T15:13:39.488Z,26.20
2018-04-24T15:16:07.235Z,26.00
2018-04-24T15:18:35.394Z,25.70
2018-04-24T15:21:04.062Z,25.90
2018-04-24T15:23:32.998Z,25.90
2018-04-24T15:26:01.001Z,25.00
2018-04-24T15:28:28.699Z,25.00
2018-04-24T15:30:56.739Z,24.30
2018-04-24T15:33:24.768Z,24.30
2018-04-24T15:35:52.841Z,24.30
2018-04-24T15:38:20.859Z,24.10
2018-04-24T15:40:48.800Z,24.10
2018-04-24T15:43:16.792Z,24.00
2018-04-24T15:45:44.763Z,24.00
2018-04-24T15:48:12.729Z,23.90
2018-04-24T15:50:41.552Z,23.60
2018-04-24T15:53:09.629Z,23.60
2018-04-24T15:55:37.589Z,23.50
2018-04-24T15:58:05.515Z,23.50
2018-04-24T16:00:39.568Z,23.30
2018-04-24T16:36:09.585Z,21.90
2018-04-24T16:38:37.160Z,21.80
2018-04-24T16:41:04.839Z,21.70
2018-04-24T16:43:32.282Z,21.70
2018-04-24T16:45:59.831Z,21.70
2018-04-24T16:48:27.959Z,21.70
2018-04-24T16:50:55.940Z,21.60
2018-04-24T16:53:23.526Z,21.60
2018-04-24T16:55:52.064Z,21.50
2018-04-24T16:58:19.635Z,21.50
2018-04-24T17:00:47.264Z,21.60
2018-04-24T17:03:14.806Z,21.50
2018-04-24T17:05:42.395Z,21.50
2018-04-24T17:08:10.699Z,21.40
2018-04-24T17:10:38.963Z,21.40
2018-04-24T17:13:07.759Z,21.30
2018-04-24T17:15:35.705Z,21.30
2018-04-24T17:18:03.793Z,21.20
2018-04-24T17:20:31.764Z,21.10
2018-04-24T17:22:59.738Z,21.10
2018-04-24T17:25:27.709Z,21.00
2018-04-24T17:27:55.678Z,20.90
2018-04-24T17:30:23.231Z,20.90
2018-04-24T17:32:51.480Z,20.80
2018-04-24T17:35:19.119Z,20.70
2018-04-24T17:37:46.597Z,20.60
2018-04-24T17:42:48.880Z,20.50
2018-04-24T17:45:16.417Z,20.30
2018-04-24T17:47:44.214Z,20.20
2018-04-24T17:50:11.781Z,20.20
2018-04-24T17:52:39.353Z,20.10
2018-04-24T17:55:08.311Z,20.00
2018-04-24T17:57:36.859Z,20.00
2018-04-24T18:00:04.418Z,19.90
2018-04-24T18:02:33.021Z,19.80
2018-04-24T18:05:00.630Z,19.70
2018-04-24T18:07:29.029Z,19.50
2018-04-24T18:09:56.557Z,19.50
2018-04-24T18:12:24.174Z,19.50
2018-04-24T18:14:51.784Z,19.40
2018-04-24T18:17:19.360Z,19.30
2018-04-24T18:19:47.353Z,19.20
2018-04-24T18:22:14.895Z,19.20
2018-04-24T18:24:42.458Z,19.20
2018-04-24T18:27:10.401Z,19.10
2018-04-24T18:29:38.027Z,19.10
2018-04-24T18:32:05.653Z,19.00
2018-04-24T18:34:33.702Z,18.90
2018-04-24T18:37:01.811Z,18.90
2018-04-24T18:39:30.134Z,18.90
2018-04-24T18:41:57.731Z,18.80
2018-04-24T18:44:25.350Z,18.80
2018-04-24T18:46:52.904Z,18.70
2018-04-24T18:49:20.473Z,18.70
2018-04-24T18:51:48.049Z,18.70
2018-04-24T18:54:16.036Z,18.60
2018-04-24T18:56:43.737Z,18.60
2018-04-24T18:59:11.417Z,18.60
2018-04-24T19:01:39.040Z,18.50
2018-04-24T19:04:06.667Z,18.50
2018-04-24T19:06:34.341Z,18.40
2018-04-24T19:09:02.327Z,18.30
2018-04-24T19:11:31.139Z,18.30
2018-04-24T19:13:58.724Z,18.20
2018-04-24T19:16:26.337Z,18.20
2018-04-24T19:19:03.610Z,18.10
2018-04-24T19:21:31.207Z,18.10
2018-04-24T19:23:58.978Z,18.10
2018-04-24T19:26:27.862Z,18.10
2018-04-24T19:28:55.472Z,18.10
2018-04-24T19:31:29.396Z,18.00
2018-04-24T19:33:57.027Z,18.00
2018-04-24T19:36:24.616Z,18.00
2018-04-24T19:38:57.849Z,17.90
2018-04-24T19:41:31.323Z,17.90
2018-04-24T19:43:59.645Z,17.80
2018-04-24T19:46:27.208Z,17.80
2018-04-24T19:49:00.347Z,17.80
2018-04-24T19:51:27.938Z,17.80
2018-04-24T19:53:55.541Z,17.80
2018-04-24T19:56:23.885Z,17.80
2018-04-24T19:58:51.483Z,17.80
2018-04-24T20:01:19.457Z,17.70
2018-04-24T20:03:47.898Z,17.70
2018-04-24T20:06:15.490Z,17.70
2018-04-24T20:08:43.466Z,17.50
2018-04-24T20:11:12.234Z,17.40
2018-04-24T20:13:39.866Z,17.50
2018-04-24T20:16:07.426Z,17.40
2018-04-24T20:18:35.011Z,17.30
2018-04-24T20:21:02.608Z,17.30
2018-04-24T20:23:30.514Z,17.20
2018-04-24T20:25:58.112Z,17.00
2018-04-24T20:28:26.092Z,16.80
2018-04-24T20:30:54.091Z,16.70
2018-04-24T20:33:21.640Z,16.70
2018-04-24T20:35:49.217Z,16.60
2018-04-24T20:38:17.315Z,16.60
2018-04-24T20:40:44.946Z,16.50
2018-04-24T20:43:12.883Z,16.50
2018-04-24T20:45:40.860Z,16.60
2018-04-24T20:48:08.821Z,16.60
2018-04-24T20:50:36.824Z,16.60
2018-04-24T20:53:04.837Z,16.60
2018-04-24T20:55:32.730Z,16.60
2018-04-24T20:58:00.659Z,16.50
2018-04-24T21:00:28.343Z,16.50
2018-04-24T21:02:55.900Z,16.50
2018-04-24T21:05:23.630Z,16.50
2018-04-24T21:07:52.275Z,16.40
2018-04-24T21:10:20.245Z,16.40
2018-04-24T21:12:48.783Z,16.30
2018-04-24T21:15:16.364Z,16.30
2018-04-24T21:17:43.976Z,16.30
2018-04-24T21:20:12.021Z,16.20
2018-04-24T21:22:39.993Z,16.20
2018-04-24T21:25:07.652Z,16.20
2018-04-24T21:27:35.647Z,16.20
2018-04-24T21:30:08.976Z,16.20
2018-04-24T21:32:36.590Z,16.20
2018-04-24T21:35:04.199Z,16.20
2018-04-24T21:37:31.688Z,16.20
2018-04-24T21:40:01.403Z,16.20
2018-04-24T21:42:29.801Z,16.10
2018-04-24T21:44:57.357Z,16.10
2018-04-24T21:47:24.986Z,15.90
2018-04-24T21:49:52.971Z,15.80
2018-04-24T21:52:20.938Z,15.80
2018-04-24T21:54:48.501Z,15.80
2018-04-24T21:57:16.055Z,15.70
2018-04-24T21:59:43.657Z,15.60
2018-04-24T22:02:11.221Z,15.50
2018-04-24T22:04:38.778Z,15.40
2018-04-24T22:07:06.340Z,15.30
2018-04-24T22:09:33.848Z,15.20
2018-04-24T22:12:01.867Z,15.00
2018-04-24T22:14:29.489Z,15.00
2018-04-24T22:16:57.469Z,14.90
2018-04-24T22:19:25.041Z,14.90
2018-04-24T22:21:52.608Z,14.80
2018-04-24T22:24:20.199Z,14.70
2018-04-24T22:26:47.797Z,14.70
2018-04-24T22:29:18.377Z,14.60
2018-04-24T22:31:46.082Z,14.60
2018-04-24T22:34:14.488Z,14.60
2018-04-24T22:36:42.032Z,14.60
2018-04-24T22:39:09.607Z,14.60
2018-04-24T22:41:37.161Z,14.50
2018-04-24T22:44:04.709Z,14.50
2018-04-24T22:46:32.281Z,14.50
2018-04-24T22:48:59.831Z,14.50
2018-04-24T22:51:27.435Z,14.50
2018-04-24T22:53:55.498Z,14.50
2018-04-24T22:56:23.065Z,14.50
2018-04-24T22:58:50.635Z,14.40
2018-04-24T23:01:18.221Z,14.40
2018-04-24T23:03:46.520Z,14.40
2018-04-24T23:06:14.463Z,14.30
2018-04-24T23:08:42.032Z,14.30
2018-04-24T23:11:21.639Z,14.30
2018-04-24T23:14:01.096Z,14.30
2018-04-24T23:16:40.439Z,14.20
2018-04-24T23:19:20.166Z,14.20
2018-04-24T23:21:47.201Z,14.10
2018-04-24T23:24:15.027Z,14.00
2018-04-24T23:26:42.688Z,13.80
2018-04-24T23:29:10.595Z,13.80
2018-04-24T23:31:39.342Z,13.70
2018-04-24T23:34:07.990Z,13.60
2018-04-24T23:36:36.287Z,13.60
2018-04-24T23:39:04.549Z,13.50
2018-04-24T23:41:32.203Z,13.50
2018-04-24T23:43:59.821Z,13.50
2018-04-24T23:46:28.132Z,13.50
2018-04-24T23:48:55.717Z,13.50
2018-04-24T23:51:23.244Z,13.50
2018-04-24T23:53:50.843Z,13.50
2018-04-24T23:56:19.540Z,13.40
2018-04-24T23:58:47.525Z,13.30
